sensor_id;sensor_type;location;lat;lon;timestamp;pressure;altitude;pressure_sealevel;temperature;humidity
2681;BME280;1350;42.134;24.708;2023-11-21T00:01:06;99222.91;;;9.77;94.88
2681;BME280;1350;42.134;24.708;2023-11-21T00:03:34;99227.41;;;9.75;96.17
2681;BME280;1350;42.134;24.708;2023-11-21T00:06:03;99227.91;;;9.66;96.27
2681;BME280;1350;42.134;24.708;2023-11-21T00:08:30;99227.16;;;9.64;96.32
2681;BME280;1350;42.134;24.708;2023-11-21T00:10:56;99227.81;;;9.52;96.78
2681;BME280;1350;42.134;24.708;2023-11-21T00:13:23;99225.66;;;9.43;97.48
2681;BME280;1350;42.134;24.708;2023-11-21T00:15:50;99221.56;;;9.37;97.33
2681;BME280;1350;42.134;24.708;2023-11-21T00:18:17;99220.00;;;9.33;98.13
2681;BME280;1350;42.134;24.708;2023-11-21T00:20:44;99220.22;;;9.29;97.77
2681;BME280;1350;42.134;24.708;2023-11-21T00:23:13;99216.75;;;9.28;98.69
2681;BME280;1350;42.134;24.708;2023-11-21T00:25:40;99217.66;;;9.27;98.21
2681;BME280;1350;42.134;24.708;2023-11-21T00:28:06;99222.59;;;9.35;98.03
2681;BME280;1350;42.134;24.708;2023-11-21T00:30:33;99214.47;;;9.38;97.35
2681;BME280;1350;42.134;24.708;2023-11-21T00:33:00;99209.09;;;9.39;96.92
2681;BME280;1350;42.134;24.708;2023-11-21T00:35:27;99205.94;;;9.33;96.79
2681;BME280;1350;42.134;24.708;2023-11-21T00:37:54;99203.78;;;9.24;98.26
2681;BME280;1350;42.134;24.708;2023-11-21T00:40:22;99200.75;;;9.14;99.83
2681;BME280;1350;42.134;24.708;2023-11-21T00:42:50;99201.72;;;9.29;98.93
2681;BME280;1350;42.134;24.708;2023-11-21T00:45:17;99203.53;;;9.28;98.58
2681;BME280;1350;42.134;24.708;2023-11-21T00:47:43;99206.50;;;9.22;99.89
2681;BME280;1350;42.134;24.708;2023-11-21T00:50:10;99207.16;;;9.26;99.35
2681;BME280;1350;42.134;24.708;2023-11-21T00:52:37;99204.25;;;9.15;100.00
2681;BME280;1350;42.134;24.708;2023-11-21T00:55:05;99201.72;;;9.29;99.90
2681;BME280;1350;42.134;24.708;2023-11-21T00:57:34;99202.81;;;9.25;99.32
2681;BME280;1350;42.134;24.708;2023-11-21T01:00:01;99212.22;;;9.30;99.38
2681;BME280;1350;42.134;24.708;2023-11-21T01:02:32;99202.69;;;9.11;100.00
2681;BME280;1350;42.134;24.708;2023-11-21T01:05:01;99207.59;;;9.01;100.00
2681;BME280;1350;42.134;24.708;2023-11-21T01:07:28;99218.19;;;8.84;100.00
2681;BME280;1350;42.134;24.708;2023-11-21T01:09:54;99218.75;;;8.91;100.00
2681;BME280;1350;42.134;24.708;2023-11-21T01:12:21;99214.72;;;8.84;100.00
2681;BME280;1350;42.134;24.708;2023-11-21T01:14:51;99208.09;;;8.75;100.00
2681;BME280;1350;42.134;24.708;2023-11-21T01:17:18;99221.06;;;8.63;100.00
2681;BME280;1350;42.134;24.708;2023-11-21T01:19:48;99222.88;;;8.62;100.00
2681;BME280;1350;42.134;24.708;2023-11-21T01:22:15;99218.56;;;8.59;100.00
2681;BME280;1350;42.134;24.708;2023-11-21T01:24:42;99215.94;;;8.59;100.00
2681;BME280;1350;42.134;24.708;2023-11-21T01:27:08;99205.75;;;8.52;100.00
2681;BME280;1350;42.134;24.708;2023-11-21T01:29:35;99221.28;;;8.58;100.00
2681;BME280;1350;42.134;24.708;2023-11-21T01:32:04;99217.97;;;8.54;100.00
2681;BME280;1350;42.134;24.708;2023-11-21T01:34:33;99212.53;;;8.57;100.00
2681;BME280;1350;42.134;24.708;2023-11-21T01:37:00;99214.22;;;8.58;100.00
2681;BME280;1350;42.134;24.708;2023-11-21T01:39:27;99212.59;;;8.39;100.00
2681;BME280;1350;42.134;24.708;2023-11-21T01:41:54;99213.97;;;8.46;100.00
2681;BME280;1350;42.134;24.708;2023-11-21T01:44:23;99207.53;;;8.34;100.00
2681;BME280;1350;42.134;24.708;2023-11-21T01:46:50;99212.03;;;8.32;100.00
2681;BME280;1350;42.134;24.708;2023-11-21T01:49:20;99204.22;;;7.94;100.00
2681;BME280;1350;42.134;24.708;2023-11-21T01:51:48;99206.84;;;8.12;100.00
2681;BME280;1350;42.134;24.708;2023-11-21T01:54:16;99211.41;;;8.27;100.00
2681;BME280;1350;42.134;24.708;2023-11-21T01:56:45;99211.00;;;8.35;100.00
2681;BME280;1350;42.134;24.708;2023-11-21T01:59:21;99199.13;;;8.26;100.00
2681;BME280;1350;42.134;24.708;2023-11-21T02:01:48;99199.63;;;8.16;100.00
2681;BME280;1350;42.134;24.708;2023-11-21T02:04:15;99198.28;;;7.89;100.00
2681;BME280;1350;42.134;24.708;2023-11-21T02:06:44;99186.91;;;7.88;100.00
2681;BME280;1350;42.134;24.708;2023-11-21T02:09:11;99192.69;;;7.78;100.00
2681;BME280;1350;42.134;24.708;2023-11-21T02:11:40;99194.75;;;7.71;100.00
2681;BME280;1350;42.134;24.708;2023-11-21T02:14:07;99201.66;;;7.74;100.00
2681;BME280;1350;42.134;24.708;2023-11-21T02:16:35;99193.59;;;7.95;100.00
2681;BME280;1350;42.134;24.708;2023-11-21T02:19:02;99197.22;;;8.11;100.00
2681;BME280;1350;42.134;24.708;2023-11-21T02:21:31;99201.47;;;8.14;100.00
2681;BME280;1350;42.134;24.708;2023-11-21T02:23:59;99205.44;;;8.05;100.00
2681;BME280;1350;42.134;24.708;2023-11-21T02:26:26;99211.31;;;7.56;100.00
2681;BME280;1350;42.134;24.708;2023-11-21T02:28:53;99213.00;;;7.57;100.00
2681;BME280;1350;42.134;24.708;2023-11-21T02:31:19;99213.59;;;7.64;100.00
2681;BME280;1350;42.134;24.708;2023-11-21T02:33:48;99217.13;;;7.63;100.00
2681;BME280;1350;42.134;24.708;2023-11-21T02:36:15;99213.38;;;7.50;100.00
2681;BME280;1350;42.134;24.708;2023-11-21T02:38:41;99214.22;;;7.50;100.00
2681;BME280;1350;42.134;24.708;2023-11-21T02:41:10;99209.78;;;7.51;100.00
2681;BME280;1350;42.134;24.708;2023-11-21T02:43:36;99206.09;;;7.55;100.00
2681;BME280;1350;42.134;24.708;2023-11-21T02:46:04;99200.81;;;7.36;100.00
2681;BME280;1350;42.134;24.708;2023-11-21T02:48:31;99197.31;;;7.54;100.00
2681;BME280;1350;42.134;24.708;2023-11-21T02:50:58;99206.25;;;7.52;100.00
2681;BME280;1350;42.134;24.708;2023-11-21T02:53:25;99214.94;;;7.54;100.00
2681;BME280;1350;42.134;24.708;2023-11-21T02:55:51;99223.34;;;7.62;100.00
2681;BME280;1350;42.134;24.708;2023-11-21T02:58:20;99219.75;;;7.44;100.00
2681;BME280;1350;42.134;24.708;2023-11-21T03:00:47;99228.19;;;7.14;100.00
2681;BME280;1350;42.134;24.708;2023-11-21T03:03:13;99215.75;;;7.17;100.00
2681;BME280;1350;42.134;24.708;2023-11-21T03:05:40;99222.25;;;7.29;100.00
2681;BME280;1350;42.134;24.708;2023-11-21T03:08:07;99231.16;;;7.06;100.00
2681;BME280;1350;42.134;24.708;2023-11-21T03:10:34;99222.72;;;6.98;100.00
2681;BME280;1350;42.134;24.708;2023-11-21T03:13:01;99226.03;;;6.83;100.00
2681;BME280;1350;42.134;24.708;2023-11-21T03:15:29;99229.88;;;6.96;100.00
2681;BME280;1350;42.134;24.708;2023-11-21T03:17:58;99225.56;;;6.73;100.00
2681;BME280;1350;42.134;24.708;2023-11-21T03:20:24;99225.25;;;7.01;100.00
2681;BME280;1350;42.134;24.708;2023-11-21T03:22:52;99222.16;;;6.92;100.00
2681;BME280;1350;42.134;24.708;2023-11-21T03:25:19;99225.50;;;6.95;100.00
2681;BME280;1350;42.134;24.708;2023-11-21T03:27:49;99226.16;;;7.00;100.00
2681;BME280;1350;42.134;24.708;2023-11-21T03:30:16;99229.88;;;6.96;100.00
2681;BME280;1350;42.134;24.708;2023-11-21T03:32:44;99229.75;;;6.79;100.00
2681;BME280;1350;42.134;24.708;2023-11-21T03:35:11;99238.66;;;6.75;100.00
2681;BME280;1350;42.134;24.708;2023-11-21T03:37:38;99234.88;;;6.82;100.00
2681;BME280;1350;42.134;24.708;2023-11-21T03:40:07;99225.50;;;6.75;100.00
2681;BME280;1350;42.134;24.708;2023-11-21T03:42:34;99231.31;;;6.83;100.00
2681;BME280;1350;42.134;24.708;2023-11-21T03:45:01;99229.06;;;6.74;100.00
2681;BME280;1350;42.134;24.708;2023-11-21T03:47:29;99238.56;;;6.58;100.00
2681;BME280;1350;42.134;24.708;2023-11-21T03:49:57;99234.22;;;6.14;100.00
2681;BME280;1350;42.134;24.708;2023-11-21T03:52:25;99239.66;;;6.31;100.00
2681;BME280;1350;42.134;24.708;2023-11-21T03:54:52;99236.41;;;6.46;100.00
2681;BME280;1350;42.134;24.708;2023-11-21T03:57:20;99237.34;;;6.45;100.00
2681;BME280;1350;42.134;24.708;2023-11-21T03:59:47;99251.31;;;6.47;100.00
2681;BME280;1350;42.134;24.708;2023-11-21T04:02:14;99252.19;;;6.46;100.00
2681;BME280;1350;42.134;24.708;2023-11-21T04:04:41;99251.88;;;6.53;100.00
2681;BME280;1350;42.134;24.708;2023-11-21T04:07:09;99247.75;;;6.68;100.00
2681;BME280;1350;42.134;24.708;2023-11-21T04:09:36;99237.16;;;6.69;100.00
2681;BME280;1350;42.134;24.708;2023-11-21T04:12:03;99238.22;;;6.65;100.00
2681;BME280;1350;42.134;24.708;2023-11-21T04:14:30;99240.06;;;6.63;100.00
2681;BME280;1350;42.134;24.708;2023-11-21T04:16:57;99249.16;;;6.56;100.00
2681;BME280;1350;42.134;24.708;2023-11-21T04:19:24;99243.22;;;6.51;100.00
2681;BME280;1350;42.134;24.708;2023-11-21T04:21:51;99241.75;;;6.64;100.00
2681;BME280;1350;42.134;24.708;2023-11-21T04:24:19;99241.41;;;6.52;100.00
2681;BME280;1350;42.134;24.708;2023-11-21T04:26:46;99255.00;;;6.63;100.00
2681;BME280;1350;42.134;24.708;2023-11-21T04:29:13;99256.09;;;6.37;100.00
2681;BME280;1350;42.134;24.708;2023-11-21T04:31:40;99257.53;;;6.01;100.00
2681;BME280;1350;42.134;24.708;2023-11-21T04:34:07;99251.38;;;6.24;100.00
2681;BME280;1350;42.134;24.708;2023-11-21T04:36:33;99255.91;;;6.20;100.00
2681;BME280;1350;42.134;24.708;2023-11-21T04:39:00;99256.94;;;6.16;100.00
2681;BME280;1350;42.134;24.708;2023-11-21T04:41:29;99261.16;;;6.20;100.00
2681;BME280;1350;42.134;24.708;2023-11-21T04:43:57;99251.75;;;5.93;100.00
2681;BME280;1350;42.134;24.708;2023-11-21T04:46:24;99249.94;;;5.71;100.00
2681;BME280;1350;42.134;24.708;2023-11-21T04:48:50;99248.34;;;5.67;100.00
2681;BME280;1350;42.134;24.708;2023-11-21T04:51:17;99269.44;;;5.42;100.00
2681;BME280;1350;42.134;24.708;2023-11-21T04:53:44;99268.47;;;5.45;100.00
2681;BME280;1350;42.134;24.708;2023-11-21T04:56:13;99263.31;;;5.42;100.00
2681;BME280;1350;42.134;24.708;2023-11-21T04:58:42;99257.16;;;5.19;100.00
2681;BME280;1350;42.134;24.708;2023-11-21T05:01:09;99258.47;;;5.31;100.00
2681;BME280;1350;42.134;24.708;2023-11-21T05:03:37;99247.09;;;5.31;100.00
2681;BME280;1350;42.134;24.708;2023-11-21T05:06:04;99247.09;;;5.31;100.00
2681;BME280;1350;42.134;24.708;2023-11-21T05:08:31;99254.28;;;5.26;100.00
2681;BME280;1350;42.134;24.708;2023-11-21T05:10:59;99251.00;;;5.44;100.00
2681;BME280;1350;42.134;24.708;2023-11-21T05:13:26;99262.13;;;5.27;100.00
2681;BME280;1350;42.134;24.708;2023-11-21T05:15:54;99262.47;;;5.18;100.00
2681;BME280;1350;42.134;24.708;2023-11-21T05:18:22;99263.47;;;5.14;100.00
2681;BME280;1350;42.134;24.708;2023-11-21T05:20:49;99268.88;;;5.09;100.00
2681;BME280;1350;42.134;24.708;2023-11-21T05:23:16;99270.41;;;5.16;100.00
2681;BME280;1350;42.134;24.708;2023-11-21T05:25:42;99274.63;;;5.20;100.00
2681;BME280;1350;42.134;24.708;2023-11-21T05:28:09;99270.84;;;5.28;100.00
2681;BME280;1350;42.134;24.708;2023-11-21T05:30:36;99268.81;;;5.36;100.00
2681;BME280;1350;42.134;24.708;2023-11-21T05:33:06;99262.06;;;5.29;100.00
2681;BME280;1350;42.134;24.708;2023-11-21T05:35:32;99259.84;;;5.41;100.00
2681;BME280;1350;42.134;24.708;2023-11-21T05:37:59;99271.53;;;5.33;100.00
2681;BME280;1350;42.134;24.708;2023-11-21T05:40:26;99267.09;;;5.35;100.00
2681;BME280;1350;42.134;24.708;2023-11-21T05:42:55;99267.28;;;5.30;100.00
2681;BME280;1350;42.134;24.708;2023-11-21T05:45:22;99281.13;;;5.34;100.00
2681;BME280;1350;42.134;24.708;2023-11-21T05:47:50;99278.44;;;5.35;100.00
2681;BME280;1350;42.134;24.708;2023-11-21T05:50:18;99283.16;;;5.50;100.00
2681;BME280;1350;42.134;24.708;2023-11-21T05:52:46;99279.69;;;5.73;100.00
2681;BME280;1350;42.134;24.708;2023-11-21T05:55:14;99272.31;;;6.27;100.00
2681;BME280;1350;42.134;24.708;2023-11-21T05:57:42;99267.94;;;6.89;100.00
2681;BME280;1350;42.134;24.708;2023-11-21T06:00:11;99267.88;;;7.11;100.00
2681;BME280;1350;42.134;24.708;2023-11-21T06:02:44;99266.22;;;8.58;100.00
2681;BME280;1350;42.134;24.708;2023-11-21T06:05:11;99262.59;;;9.77;100.00
2681;BME280;1350;42.134;24.708;2023-11-21T06:07:39;99265.25;;;10.70;95.86
2681;BME280;1350;42.134;24.708;2023-11-21T06:10:07;99266.91;;;11.60;86.10
2681;BME280;1350;42.134;24.708;2023-11-21T06:12:36;99276.09;;;11.40;85.69
2681;BME280;1350;42.134;24.708;2023-11-21T06:15:04;99263.22;;;11.90;82.86
2681;BME280;1350;42.134;24.708;2023-11-21T06:17:33;99262.69;;;12.67;80.03
2681;BME280;1350;42.134;24.708;2023-11-21T06:20:01;99263.50;;;13.71;70.86
2681;BME280;1350;42.134;24.708;2023-11-21T06:22:34;99274.53;;;14.15;65.94
2681;BME280;1350;42.134;24.708;2023-11-21T06:25:03;99269.59;;;14.46;63.79
2681;BME280;1350;42.134;24.708;2023-11-21T06:27:31;99274.69;;;14.49;62.56
2681;BME280;1350;42.134;24.708;2023-11-21T06:29:58;99275.56;;;14.50;61.46
2681;BME280;1350;42.134;24.708;2023-11-21T06:32:25;99267.25;;;14.42;61.28
2681;BME280;1350;42.134;24.708;2023-11-21T06:34:51;99263.88;;;14.27;61.22
2681;BME280;1350;42.134;24.708;2023-11-21T06:37:19;99266.25;;;14.07;61.98
2681;BME280;1350;42.134;24.708;2023-11-21T06:39:48;99263.84;;;14.15;62.60
2681;BME280;1350;42.134;24.708;2023-11-21T06:42:16;99260.59;;;14.47;61.80
2681;BME280;1350;42.134;24.708;2023-11-21T06:44:44;99271.59;;;13.82;61.82
2681;BME280;1350;42.134;24.708;2023-11-21T06:47:11;99261.53;;;14.10;62.98
2681;BME280;1350;42.134;24.708;2023-11-21T06:49:38;99251.69;;;13.37;63.42
2681;BME280;1350;42.134;24.708;2023-11-21T06:52:05;99269.22;;;12.35;70.30
2681;BME280;1350;42.134;24.708;2023-11-21T06:54:32;99256.81;;;13.01;70.12
2681;BME280;1350;42.134;24.708;2023-11-21T06:56:59;99267.75;;;13.35;66.89
2681;BME280;1350;42.134;24.708;2023-11-21T06:59:28;99270.44;;;13.35;66.41
2681;BME280;1350;42.134;24.708;2023-11-21T07:01:55;99269.97;;;13.92;64.83
2681;BME280;1350;42.134;24.708;2023-11-21T07:04:21;99276.94;;;13.94;63.73
2681;BME280;1350;42.134;24.708;2023-11-21T07:06:49;99273.72;;;14.02;62.36
2681;BME280;1350;42.134;24.708;2023-11-21T07:09:16;99280.00;;;13.38;64.71
2681;BME280;1350;42.134;24.708;2023-11-21T07:11:44;99277.44;;;13.36;65.87
2681;BME280;1350;42.134;24.708;2023-11-21T07:14:13;99286.72;;;13.31;66.25
2681;BME280;1350;42.134;24.708;2023-11-21T07:16:41;99284.47;;;12.98;66.53
2681;BME280;1350;42.134;24.708;2023-11-21T07:19:08;99296.00;;;12.99;68.10
2681;BME280;1350;42.134;24.708;2023-11-21T07:21:36;99282.09;;;13.08;68.29
2681;BME280;1350;42.134;24.708;2023-11-21T07:24:03;99281.34;;;13.06;68.79
2681;BME280;1350;42.134;24.708;2023-11-21T07:26:32;99279.84;;;13.02;68.78
2681;BME280;1350;42.134;24.708;2023-11-21T07:28:59;99275.75;;;13.35;69.90
2681;BME280;1350;42.134;24.708;2023-11-21T07:31:26;99271.38;;;13.85;66.93
2681;BME280;1350;42.134;24.708;2023-11-21T07:33:56;99269.19;;;14.15;63.84
2681;BME280;1350;42.134;24.708;2023-11-21T07:36:23;99270.63;;;14.80;62.53
2681;BME280;1350;42.134;24.708;2023-11-21T07:38:51;99274.06;;;15.62;58.63
2681;BME280;1350;42.134;24.708;2023-11-21T07:41:18;99271.41;;;16.28;55.93
2681;BME280;1350;42.134;24.708;2023-11-21T07:43:46;99276.69;;;16.83;53.52
2681;BME280;1350;42.134;24.708;2023-11-21T07:46:13;99280.91;;;16.32;53.20
2681;BME280;1350;42.134;24.708;2023-11-21T07:48:41;99283.44;;;15.68;54.97
2681;BME280;1350;42.134;24.708;2023-11-21T07:51:09;99283.63;;;15.43;56.01
2681;BME280;1350;42.134;24.708;2023-11-21T07:53:38;99288.22;;;15.06;57.08
2681;BME280;1350;42.134;24.708;2023-11-21T07:56:06;99290.81;;;15.18;58.40
2681;BME280;1350;42.134;24.708;2023-11-21T07:58:34;99281.66;;;16.12;56.41
2681;BME280;1350;42.134;24.708;2023-11-21T08:01:01;99278.53;;;17.04;53.99
2681;BME280;1350;42.134;24.708;2023-11-21T08:03:28;99282.41;;;16.79;53.09
2681;BME280;1350;42.134;24.708;2023-11-21T08:05:56;99277.94;;;16.68;53.55
2681;BME280;1350;42.134;24.708;2023-11-21T08:08:24;99278.50;;;16.83;52.21
2681;BME280;1350;42.134;24.708;2023-11-21T08:10:51;99284.59;;;16.85;52.41
2681;BME280;1350;42.134;24.708;2023-11-21T08:13:22;99281.94;;;17.37;51.79
2681;BME280;1350;42.134;24.708;2023-11-21T08:15:47;99274.72;;;17.69;50.92
2681;BME280;1350;42.134;24.708;2023-11-21T08:18:14;99271.50;;;18.35;50.44
2681;BME280;1350;42.134;24.708;2023-11-21T08:20:43;99273.25;;;18.46;49.65
2681;BME280;1350;42.134;24.708;2023-11-21T08:23:13;99278.41;;;18.78;48.89
2681;BME280;1350;42.134;24.708;2023-11-21T08:25:43;99279.25;;;18.78;48.97
2681;BME280;1350;42.134;24.708;2023-11-21T08:28:10;99271.22;;;18.88;48.29
2681;BME280;1350;42.134;24.708;2023-11-21T08:30:38;99271.91;;;18.80;48.43
2681;BME280;1350;42.134;24.708;2023-11-21T08:33:05;99265.06;;;18.48;48.36
2681;BME280;1350;42.134;24.708;2023-11-21T08:35:34;99262.50;;;18.46;48.42
2681;BME280;1350;42.134;24.708;2023-11-21T08:38:01;99261.84;;;17.73;48.53
2681;BME280;1350;42.134;24.708;2023-11-21T08:40:29;99258.41;;;18.12;48.84
2681;BME280;1350;42.134;24.708;2023-11-21T08:42:57;99261.72;;;18.74;47.94
2681;BME280;1350;42.134;24.708;2023-11-21T08:45:25;99261.31;;;18.98;46.62
2681;BME280;1350;42.134;24.708;2023-11-21T08:47:52;99253.81;;;19.11;46.56
2681;BME280;1350;42.134;24.708;2023-11-21T08:50:19;99252.69;;;19.13;46.05
2681;BME280;1350;42.134;24.708;2023-11-21T08:52:47;99243.94;;;19.49;45.57
2681;BME280;1350;42.134;24.708;2023-11-21T08:55:15;99238.97;;;19.16;45.89
2681;BME280;1350;42.134;24.708;2023-11-21T08:57:44;99228.91;;;18.71;46.77
2681;BME280;1350;42.134;24.708;2023-11-21T09:00:14;99223.97;;;18.66;47.18
2681;BME280;1350;42.134;24.708;2023-11-21T09:02:42;99220.84;;;18.90;46.54
2681;BME280;1350;42.134;24.708;2023-11-21T09:05:10;99217.56;;;18.58;46.97
2681;BME280;1350;42.134;24.708;2023-11-21T09:07:37;99218.38;;;18.39;47.08
2681;BME280;1350;42.134;24.708;2023-11-21T09:10:06;99219.72;;;18.73;45.76
2681;BME280;1350;42.134;24.708;2023-11-21T09:12:34;99212.06;;;19.07;45.63
2681;BME280;1350;42.134;24.708;2023-11-21T09:15:03;99208.00;;;19.03;45.57
2681;BME280;1350;42.134;24.708;2023-11-21T09:17:32;99206.84;;;19.24;45.26
2681;BME280;1350;42.134;24.708;2023-11-21T09:19:59;99206.69;;;19.07;45.82
2681;BME280;1350;42.134;24.708;2023-11-21T09:22:26;99197.66;;;19.08;45.70
2681;BME280;1350;42.134;24.708;2023-11-21T09:24:55;99191.16;;;19.01;45.99
2681;BME280;1350;42.134;24.708;2023-11-21T09:27:23;99187.44;;;19.21;45.68
2681;BME280;1350;42.134;24.708;2023-11-21T09:29:51;99182.66;;;19.15;45.89
2681;BME280;1350;42.134;24.708;2023-11-21T09:32:18;99177.56;;;19.21;45.36
2681;BME280;1350;42.134;24.708;2023-11-21T09:34:48;99180.81;;;19.25;45.12
2681;BME280;1350;42.134;24.708;2023-11-21T09:37:15;99176.72;;;18.73;46.38
2681;BME280;1350;42.134;24.708;2023-11-21T09:39:42;99178.16;;;18.58;46.66
2681;BME280;1350;42.134;24.708;2023-11-21T09:42:12;99166.25;;;18.61;46.22
2681;BME280;1350;42.134;24.708;2023-11-21T09:44:45;99162.81;;;18.30;46.78
2681;BME280;1350;42.134;24.708;2023-11-21T09:47:15;99168.44;;;17.78;47.99
2681;BME280;1350;42.134;24.708;2023-11-21T09:49:48;99165.69;;;17.18;48.63
2681;BME280;1350;42.134;24.708;2023-11-21T09:52:21;99162.91;;;16.35;49.96
2681;BME280;1350;42.134;24.708;2023-11-21T09:54:51;99153.03;;;15.93;51.04
2681;BME280;1350;42.134;24.708;2023-11-21T09:57:19;99148.91;;;16.43;51.22
2681;BME280;1350;42.134;24.708;2023-11-21T09:59:51;99146.47;;;16.51;50.86
2681;BME280;1350;42.134;24.708;2023-11-21T10:02:21;99139.84;;;17.07;50.38
2681;BME280;1350;42.134;24.708;2023-11-21T10:04:53;99139.88;;;17.37;49.35
2681;BME280;1350;42.134;24.708;2023-11-21T10:07:20;99133.75;;;17.86;49.11
2681;BME280;1350;42.134;24.708;2023-11-21T10:09:48;99128.81;;;18.40;47.98
2681;BME280;1350;42.134;24.708;2023-11-21T10:12:15;99114.09;;;18.44;47.13
2681;BME280;1350;42.134;24.708;2023-11-21T10:14:43;99105.50;;;18.60;47.29
2681;BME280;1350;42.134;24.708;2023-11-21T10:17:12;99096.63;;;19.15;46.41
2681;BME280;1350;42.134;24.708;2023-11-21T10:19:42;99092.88;;;18.98;46.62
2681;BME280;1350;42.134;24.708;2023-11-21T10:22:12;99100.69;;;18.73;46.62
2681;BME280;1350;42.134;24.708;2023-11-21T10:24:40;99102.88;;;18.10;47.02
2681;BME280;1350;42.134;24.708;2023-11-21T10:27:09;99099.66;;;18.26;46.52
2681;BME280;1350;42.134;24.708;2023-11-21T10:29:35;99103.25;;;17.87;46.65
2681;BME280;1350;42.134;24.708;2023-11-21T10:32:02;99096.59;;;17.72;46.83
2681;BME280;1350;42.134;24.708;2023-11-21T10:34:31;99102.22;;;18.27;46.45
2681;BME280;1350;42.134;24.708;2023-11-21T10:36:58;99095.03;;;18.57;45.90
2681;BME280;1350;42.134;24.708;2023-11-21T10:39:26;99092.06;;;17.72;46.82
2681;BME280;1350;42.134;24.708;2023-11-21T10:41:56;99088.53;;;18.40;45.78
2681;BME280;1350;42.134;24.708;2023-11-21T10:44:23;99088.13;;;19.19;44.83
2681;BME280;1350;42.134;24.708;2023-11-21T10:46:51;99082.31;;;19.24;44.46
2681;BME280;1350;42.134;24.708;2023-11-21T10:49:21;99077.66;;;19.26;44.27
2681;BME280;1350;42.134;24.708;2023-11-21T10:51:50;99074.50;;;18.94;44.41
2681;BME280;1350;42.134;24.708;2023-11-21T10:54:19;99065.69;;;19.01;44.78
2681;BME280;1350;42.134;24.708;2023-11-21T10:56:49;99072.19;;;19.08;44.45
2681;BME280;1350;42.134;24.708;2023-11-21T10:59:17;99066.56;;;19.02;44.27
2681;BME280;1350;42.134;24.708;2023-11-21T11:01:46;99072.41;;;18.78;44.89
2681;BME280;1350;42.134;24.708;2023-11-21T11:04:18;99065.78;;;18.44;45.37
2681;BME280;1350;42.134;24.708;2023-11-21T11:06:49;99051.63;;;18.13;46.14
2681;BME280;1350;42.134;24.708;2023-11-21T11:09:17;99056.28;;;18.11;46.48
2681;BME280;1350;42.134;24.708;2023-11-21T11:11:45;99058.56;;;18.06;46.55
2681;BME280;1350;42.134;24.708;2023-11-21T11:14:15;99052.00;;;17.90;47.01
2681;BME280;1350;42.134;24.708;2023-11-21T11:16:42;99044.09;;;17.79;47.45
2681;BME280;1350;42.134;24.708;2023-11-21T11:19:10;99032.22;;;17.72;47.42
2681;BME280;1350;42.134;24.708;2023-11-21T11:21:46;99021.22;;;17.35;47.83
2681;BME280;1350;42.134;24.708;2023-11-21T11:27:30;99005.06;;;17.16;47.65
2681;BME280;1350;42.134;24.708;2023-11-21T11:30:12;98993.66;;;16.84;47.92
2681;BME280;1350;42.134;24.708;2023-11-21T11:32:52;98984.03;;;16.31;48.84
2681;BME280;1350;42.134;24.708;2023-11-21T11:35:29;98968.41;;;15.95;50.02
2681;BME280;1350;42.134;24.708;2023-11-21T11:38:01;98957.53;;;15.33;51.29
2681;BME280;1350;42.134;24.708;2023-11-21T11:40:38;98938.78;;;14.68;53.29
2681;BME280;1350;42.134;24.708;2023-11-21T11:43:06;98931.03;;;14.65;54.04
2681;BME280;1350;42.134;24.708;2023-11-21T11:45:35;98945.22;;;14.33;55.23
2681;BME280;1350;42.134;24.708;2023-11-21T11:48:06;98947.97;;;14.42;55.54
2681;BME280;1350;42.134;24.708;2023-11-21T11:50:33;98947.13;;;13.96;56.12
2681;BME280;1350;42.134;24.708;2023-11-21T11:53:12;98941.41;;;13.79;58.64
2681;BME280;1350;42.134;24.708;2023-11-21T11:55:39;98933.88;;;13.73;59.28
2681;BME280;1350;42.134;24.708;2023-11-21T11:58:06;98922.38;;;13.48;60.82
2681;BME280;1350;42.134;24.708;2023-11-21T12:00:35;98921.19;;;13.52;62.05
2681;BME280;1350;42.134;24.708;2023-11-21T12:03:06;98916.22;;;13.48;62.85
2681;BME280;1350;42.134;24.708;2023-11-21T12:05:35;98915.75;;;13.54;63.54
2681;BME280;1350;42.134;24.708;2023-11-21T12:08:05;98920.50;;;13.38;63.91
2681;BME280;1350;42.134;24.708;2023-11-21T12:10:33;98922.66;;;13.56;64.18
2681;BME280;1350;42.134;24.708;2023-11-21T12:13:02;98921.38;;;13.38;64.64
2681;BME280;1350;42.134;24.708;2023-11-21T12:15:30;98915.91;;;13.16;65.61
2681;BME280;1350;42.134;24.708;2023-11-21T12:17:59;98915.66;;;13.08;66.90
2681;BME280;1350;42.134;24.708;2023-11-21T12:20:27;98917.06;;;13.25;66.69
2681;BME280;1350;42.134;24.708;2023-11-21T12:22:55;98923.44;;;13.22;66.72
2681;BME280;1350;42.134;24.708;2023-11-21T12:25:25;98919.16;;;13.32;67.25
2681;BME280;1350;42.134;24.708;2023-11-21T12:27:55;98927.56;;;13.50;66.59
2681;BME280;1350;42.134;24.708;2023-11-21T12:30:23;98937.00;;;13.67;65.60
2681;BME280;1350;42.134;24.708;2023-11-21T12:32:54;98942.75;;;13.84;64.32
2681;BME280;1350;42.134;24.708;2023-11-21T12:35:24;98934.50;;;13.87;63.86
2681;BME280;1350;42.134;24.708;2023-11-21T12:37:52;98935.09;;;13.80;63.24
2681;BME280;1350;42.134;24.708;2023-11-21T12:40:20;98930.94;;;13.65;63.48
2681;BME280;1350;42.134;24.708;2023-11-21T12:42:51;98930.22;;;13.74;63.62
2681;BME280;1350;42.134;24.708;2023-11-21T12:45:20;98938.50;;;13.82;63.56
2681;BME280;1350;42.134;24.708;2023-11-21T12:47:48;98937.94;;;14.00;63.49
2681;BME280;1350;42.134;24.708;2023-11-21T12:50:18;98923.81;;;14.22;62.55
2681;BME280;1350;42.134;24.708;2023-11-21T12:52:51;98918.72;;;14.19;62.21
2681;BME280;1350;42.134;24.708;2023-11-21T12:55:20;98911.41;;;13.99;62.92
2681;BME280;1350;42.134;24.708;2023-11-21T12:57:48;98904.75;;;14.04;63.76
2681;BME280;1350;42.134;24.708;2023-11-21T13:00:18;98905.72;;;14.03;63.62
2681;BME280;1350;42.134;24.708;2023-11-21T13:02:54;98904.13;;;13.90;63.61
2681;BME280;1350;42.134;24.708;2023-11-21T13:05:26;98896.63;;;14.06;63.95
2681;BME280;1350;42.134;24.708;2023-11-21T13:07:55;98902.59;;;14.20;62.64
2681;BME280;1350;42.134;24.708;2023-11-21T13:10:24;98904.09;;;14.35;61.90
2681;BME280;1350;42.134;24.708;2023-11-21T13:12:55;98901.38;;;14.13;62.88
2681;BME280;1350;42.134;24.708;2023-11-21T13:15:23;98904.50;;;14.07;63.41
2681;BME280;1350;42.134;24.708;2023-11-21T13:17:50;98890.22;;;14.19;62.57
2681;BME280;1350;42.134;24.708;2023-11-21T13:20:19;98898.41;;;14.29;63.69